Argenta, Texas
Current Conditions -  °F | °C
As of 5:30 PM on Wednesday 17 Dec 2014 (Local Time) from KRBO Reporting Station
Clear Clear  
Wind Chill: 72°   Ceiling: Unl
Heat Index: 72°   Visibility: 10mi
Dew Point: 64°   Wind: 13mph
Humidity: 75%   Direction: 150°SSE
Pressure: 30"   Gusts: NA
Location:  28.0654°N, 97.7489°W
Report Text: KRBO 172330Z AUTO 15011KT 10SM CLR 22/18 A3000 RMK AO2 T02230177
Loading
Personal Weather Stations






























Interactive Weather Map New forecast layout! Learn more

10-Day Weather Forecast

Advertisements
Track Severe Weather on mobile